Time,TemperatureF,DewpointF,PressureIn,WindDirection,WindDirectionDegrees,WindSpeedMPH,WindSpeedGustMPH,Humidity,HourlyPrecipIn,Conditions,Clouds,dailyrainin,SoftwareType,DateUTC
2013-05-21 00:01:00,44.0,40.0,-100.00,North,-999,-999.0,-999.0,87,-99.99,,,-99.99,,2013-05-21 07:01:00,
2013-05-21 00:10:00,42.0,40.0,-100.00,North,-999,-999.0,-999.0,92,-99.99,,,-99.99,,2013-05-21 07:10:00,
2013-05-21 00:11:00,44.0,-99.9,-100.00,North,-999,-999.0,-999.0,-999,-99.99,,,-99.99,,2013-05-21 07:11:00,
2013-05-21 00:31:00,42.0,40.0,-100.00,North,-999,-999.0,-999.0,92,-99.99,,,-99.99,,2013-05-21 07:31:00,
2013-05-21 01:53:00,40.0,-99.9,-100.00,North,-999,-999.0,-999.0,-999,-99.99,,,-99.99,,2013-05-21 08:53:00,
2013-05-21 02:01:00,41.0,41.0,-100.00,North,-999,-999.0,-999.0,99,-99.99,,,-99.99,,2013-05-21 09:01:00,
2013-05-21 02:21:00,40.0,36.0,-100.00,North,-999,-999.0,-999.0,86,-99.99,,,-99.99,,2013-05-21 09:21:00,
2013-05-21 02:32:00,41.0,35.0,-100.00,North,-999,-999.0,-999.0,77,-99.99,,,-99.99,,2013-05-21 09:32:00,
2013-05-21 02:41:00,41.0,35.0,-100.00,North,-999,-999.0,-999.0,77,-99.99,,,-99.99,,2013-05-21 09:41:00,
2013-05-21 02:52:00,42.0,34.0,-100.00,North,-999,-999.0,-999.0,73,-99.99,,,-99.99,,2013-05-21 09:52:00,
2013-05-21 03:02:00,43.0,36.0,-100.00,North,-999,-999.0,-999.0,75,-99.99,,,-99.99,,2013-05-21 10:02:00,
2013-05-21 03:12:00,43.0,36.0,-100.00,North,-999,-999.0,-999.0,75,-99.99,,,-99.99,,2013-05-21 10:12:00,
2013-05-21 03:22:00,45.0,38.0,-100.00,ENE,70,0.0,-999.0,76,-99.99,,,-99.99,,2013-05-21 10:22:00,
2013-05-21 03:33:00,46.0,-99.9,-100.00,North,-999,-999.0,-999.0,-999,-99.99,,,-99.99,,2013-05-21 10:33:00,
2013-05-21 03:42:00,46.0,-99.9,-100.00,North,-999,-999.0,-999.0,-999,-99.99,,,-99.99,,2013-05-21 10:42:00,
2013-05-21 03:53:00,46.0,-99.9,-100.00,North,-999,-999.0,-999.0,-999,-99.99,,,-99.99,,2013-05-21 10:53:00,
2013-05-21 04:02:00,45.0,39.0,-100.00,North,-999,-999.0,-999.0,78,-99.99,,,-99.99,,2013-05-21 11:02:00,
2013-05-21 04:11:00,45.0,39.0,-100.00,North,-999,-999.0,-999.0,78,-99.99,,,-99.99,,2013-05-21 11:11:00,
2013-05-21 04:21:00,45.0,39.0,-100.00,North,-999,-999.0,-999.0,78,-99.99,,,-99.99,,2013-05-21 11:21:00,
2013-05-21 04:31:00,45.0,39.0,-100.00,North,-999,-999.0,-999.0,78,-99.99,,,-99.99,,2013-05-21 11:31:00,
2013-05-21 04:42:00,45.0,-99.9,-100.00,North,-999,-999.0,-999.0,-999,-99.99,,,-99.99,,2013-05-21 11:42:00,
2013-05-21 04:52:00,45.0,-99.9,-100.00,North,-999,-999.0,-999.0,-999,-99.99,,,-99.99,,2013-05-21 11:52:00,
2013-05-21 05:02:00,45.0,-99.9,-100.00,North,-999,-999.0,-999.0,-999,-99.99,,,-99.99,,2013-05-21 12:02:00,
2013-05-21 05:11:00,45.0,35.0,-100.00,North,-999,-999.0,-999.0,66,-99.99,,,-99.99,,2013-05-21 12:11:00,
2013-05-21 05:21:00,45.0,35.0,-100.00,North,-999,-999.0,-999.0,66,-99.99,,,-99.99,,2013-05-21 12:21:00,
2013-05-21 05:31:00,44.0,33.0,-100.00,West,260,4.0,-999.0,64,-99.99,,,-99.99,,2013-05-21 12:31:00,
2013-05-21 05:41:00,45.0,34.0,-100.00,North,-999,-999.0,-999.0,64,-99.99,,,-99.99,,2013-05-21 12:41:00,
2013-05-21 05:52:00,45.0,34.0,-100.00,North,-999,-999.0,-999.0,64,-99.99,,,-99.99,,2013-05-21 12:52:00,
2013-05-21 06:01:00,45.0,29.0,-100.00,North,-999,-999.0,-999.0,53,-99.99,,,-99.99,,2013-05-21 13:01:00,
2013-05-21 06:12:00,45.0,-99.9,-100.00,North,-999,-999.0,-999.0,-999,-99.99,,,-99.99,,2013-05-21 13:12:00,
2013-05-21 06:22:00,45.0,-99.9,-100.00,North,-999,-999.0,-999.0,-999,-99.99,,,-99.99,,2013-05-21 13:22:00,
2013-05-21 06:32:00,45.0,-99.9,-100.00,North,-999,-999.0,-999.0,-999,-99.99,,,-99.99,,2013-05-21 13:32:00,
2013-05-21 06:41:00,49.0,31.0,-100.00,North,-999,-999.0,-999.0,48,-99.99,,,-99.99,,2013-05-21 13:41:00,
2013-05-21 06:52:00,-999.0,-99.9,-100.00,SW,230,4.0,-999.0,-999,-99.99,,,-99.99,,2013-05-21 13:52:00,
2013-05-21 07:02:00,-999.0,-99.9,-100.00,WSW,250,4.0,-999.0,-999,-99.99,,,-99.99,,2013-05-21 14:02:00,
2013-05-21 07:11:00,-999.0,-99.9,-100.00,SW,230,4.0,-999.0,-999,-99.99,,,-99.99,,2013-05-21 14:11:00,
2013-05-21 07:21:00,51.0,32.0,-100.00,SW,220,5.0,-999.0,47,-99.99,,,-99.99,,2013-05-21 14:21:00,
2013-05-21 07:32:00,-999.0,-99.9,-100.00,SSW,200,8.0,-999.0,-999,-99.99,,,-99.99,,2013-05-21 14:32:00,
2013-05-21 07:42:00,-999.0,-99.9,-100.00,SSW,210,11.0,-999.0,-999,-99.99,,,-99.99,,2013-05-21 14:42:00,
2013-05-21 07:51:00,54.0,28.0,-100.00,SSW,210,11.0,-999.0,35,-99.99,,,-99.99,,2013-05-21 14:51:00,
2013-05-21 08:01:00,54.0,28.0,-100.00,SSW,210,11.0,-999.0,35,-99.99,,,-99.99,,2013-05-21 15:01:00,
2013-05-21 08:11:00,56.0,24.0,-100.00,South,190,10.0,-999.0,29,-99.99,,,-99.99,,2013-05-21 15:11:00,
2013-05-21 08:43:00,-999.0,-99.9,-100.00,SSW,210,7.0,-999.0,-999,-99.99,,,-99.99,,2013-05-21 15:43:00,
2013-05-21 08:52:00,58.0,29.0,-100.00,SW,230,7.0,-999.0,33,-99.99,,,-99.99,,2013-05-21 15:52:00,
2013-05-21 09:03:00,-999.0,-99.9,-100.00,SW,230,7.0,-999.0,-999,-99.99,,,-99.99,,2013-05-21 16:03:00,
2013-05-21 09:13:00,-999.0,-99.9,-100.00,WSW,250,6.0,-999.0,-999,-99.99,,,-99.99,,2013-05-21 16:13:00,
2013-05-21 09:23:00,58.0,32.0,-100.00,SW,230,5.0,-999.0,37,-99.99,,,-99.99,,2013-05-21 16:23:00,
2013-05-21 09:32:00,-999.0,-99.9,-100.00,West,260,7.0,-999.0,-999,-99.99,,,-99.99,,2013-05-21 16:32:00,
2013-05-21 09:42:00,-999.0,-99.9,-100.00,SW,220,8.0,-999.0,-999,-99.99,,,-99.99,,2013-05-21 16:42:00,
2013-05-21 09:52:00,59.0,32.0,-100.00,North,-999,-999.0,-999.0,35,-99.99,,,-99.99,,2013-05-21 16:52:00,
2013-05-21 10:02:00,59.0,32.0,-100.00,WSW,250,7.0,-999.0,35,-99.99,,,-99.99,,2013-05-21 17:02:00,
2013-05-21 10:12:00,-999.0,-99.9,-100.00,SW,230,8.0,-999.0,-999,-99.99,,,-99.99,,2013-05-21 17:12:00,
2013-05-21 10:23:00,-999.0,-99.9,-100.00,SSW,210,10.0,-999.0,-999,-99.99,,,-99.99,,2013-05-21 17:23:00,
2013-05-21 10:32:00,59.0,35.0,-100.00,WSW,250,9.0,-999.0,40,-99.99,,,-99.99,,2013-05-21 17:32:00,
2013-05-21 10:43:00,59.0,31.0,-100.00,SW,220,8.0,-999.0,34,-99.99,,,-99.99,,2013-05-21 17:43:00,
2013-05-21 10:53:00,-999.0,-99.9,-100.00,SSW,210,7.0,-999.0,-999,-99.99,,,-99.99,,2013-05-21 17:53:00,
2013-05-21 11:02:00,-999.0,-99.9,-100.00,West,260,9.0,-999.0,-999,-99.99,,,-99.99,,2013-05-21 18:02:00,
2013-05-21 11:13:00,59.0,-99.9,-100.00,WSW,250,8.0,-999.0,-999,-99.99,,,-99.99,,2013-05-21 18:13:00,
2013-05-21 11:22:00,-999.0,-99.9,-100.00,WSW,240,6.0,-999.0,-999,-99.99,,,-99.99,,2013-05-21 18:22:00,
2013-05-21 11:32:00,62.0,38.0,-100.00,North,-999,-999.0,-999.0,41,-99.99,,,-99.99,,2013-05-21 18:32:00,
2013-05-21 11:42:00,61.0,38.0,-100.00,SW,230,8.0,-999.0,41,-99.99,,,-99.99,,2013-05-21 18:42:00,
2013-05-21 11:52:00,-999.0,-99.9,-100.00,West,260,8.0,-999.0,-999,-99.99,,,-99.99,,2013-05-21 18:52:00,
2013-05-21 12:02:00,-999.0,-99.9,-100.00,West,260,6.0,-999.0,-999,-99.99,,,-99.99,,2013-05-21 19:02:00,
2013-05-21 12:12:00,-999.0,-99.9,-100.00,SW,220,7.0,-999.0,48,-99.99,,,-99.99,,2013-05-21 19:12:00,
2013-05-21 12:22:00,-999.0,-99.9,-100.00,WSW,240,7.0,-999.0,-999,-99.99,,,-99.99,,2013-05-21 19:22:00,
2013-05-21 12:31:00,61.0,42.0,-100.00,SSW,200,8.0,-999.0,48,-99.99,,,-99.99,,2013-05-21 19:31:00,
2013-05-21 12:42:00,-999.0,-99.9,-100.00,SW,230,10.0,-999.0,-999,-99.99,,,-99.99,,2013-05-21 19:42:00,
2013-05-21 12:52:00,61.0,39.0,-100.00,WSW,250,9.0,-999.0,43,-99.99,,,-99.99,,2013-05-21 19:52:00,
2013-05-21 13:03:00,-999.0,-99.9,-100.00,WSW,240,13.0,-999.0,-999,-99.99,,,-99.99,,2013-05-21 20:03:00,
2013-05-21 13:11:00,-999.0,-99.9,-100.00,WSW,240,7.0,-999.0,-999,-99.99,,,-99.99,,2013-05-21 20:11:00,
2013-05-21 13:22:00,-999.0,-99.9,-100.00,WSW,240,6.0,-999.0,-999,-99.99,,,-99.99,,2013-05-21 20:22:00,
2013-05-21 13:32:00,62.0,44.0,-100.00,North,-999,-999.0,-999.0,50,-99.99,,,-99.99,,2013-05-21 20:32:00,
2013-05-21 13:42:00,-999.0,-99.9,-100.00,WSW,250,6.0,-999.0,-999,-99.99,,,-99.99,,2013-05-21 20:42:00,
2013-05-21 13:52:00,62.0,41.0,-100.00,West,260,7.0,-999.0,46,-99.99,,,-99.99,,2013-05-21 20:52:00,
2013-05-21 14:02:00,-999.0,-99.9,-100.00,WSW,240,7.0,-999.0,-999,-99.99,,,-99.99,,2013-05-21 21:02:00,
2013-05-21 14:11:00,-999.0,-99.9,-100.00,WSW,240,7.0,-999.0,-999,-99.99,,,-99.99,,2013-05-21 21:11:00,
2013-05-21 14:22:00,-999.0,-99.9,-100.00,West,260,8.0,-999.0,-999,-99.99,,,-99.99,,2013-05-21 21:22:00,
2013-05-21 14:33:00,-999.0,-99.9,-100.00,SSW,210,7.0,-999.0,-999,-99.99,,,-99.99,,2013-05-21 21:33:00,
2013-05-21 14:44:00,-999.0,-99.9,-100.00,WSW,240,8.0,-999.0,-999,-99.99,,,-99.99,,2013-05-21 21:44:00,
2013-05-21 14:54:00,61.0,-99.9,-100.00,North,-999,-999.0,-999.0,-999,-99.99,,,-99.99,,2013-05-21 21:54:00,
2013-05-21 15:03:00,-999.0,-99.9,-100.00,SSE,160,7.0,-999.0,-999,-99.99,,,-99.99,,2013-05-21 22:03:00,
2013-05-21 15:13:00,-999.0,-99.9,-100.00,West,270,6.0,-999.0,-999,-99.99,,,-99.99,,2013-05-21 22:13:00,
2013-05-21 15:34:00,60.0,-99.9,-100.00,North,-999,-999.0,-999.0,-999,-99.99,,,-99.99,,2013-05-21 22:34:00,
2013-05-21 15:42:00,-999.0,-99.9,-100.00,WSW,250,6.0,-999.0,-999,-99.99,,,-99.99,,2013-05-21 22:42:00,
2013-05-21 15:53:00,-999.0,-99.9,-100.00,South,190,116.0,-999.0,-999,-99.99,,,-99.99,,2013-05-21 22:53:00,
2013-05-21 16:02:00,61.0,43.0,-100.00,WSW,240,11.0,-999.0,51,-99.99,,,-99.99,,2013-05-21 23:02:00,
2013-05-21 16:12:00,-999.0,-99.9,-100.00,SW,220,7.0,-999.0,-999,-99.99,,,-99.99,,2013-05-21 23:12:00,
2013-05-21 16:32:00,60.0,-99.9,-100.00,West,260,8.0,-999.0,-999,-99.99,,,-99.99,,2013-05-21 23:32:00,
2013-05-21 16:42:00,-999.0,-99.9,-100.00,WSW,250,7.0,-999.0,-999,-99.99,,,-99.99,,2013-05-21 23:42:00,
2013-05-21 17:01:00,61.0,43.0,-100.00,SSW,200,7.0,-999.0,51,-99.99,,,-99.99,,2013-05-22 00:01:00,
2013-05-21 17:11:00,-999.0,-99.9,-100.00,South,180,9.0,-999.0,-999,-99.99,,,-99.99,,2013-05-22 00:11:00,
2013-05-21 17:22:00,-999.0,-99.9,-100.00,SSW,210,8.0,-999.0,-999,-99.99,,,-99.99,,2013-05-22 00:22:00,
2013-05-21 17:32:00,-999.0,-99.9,-100.00,WSW,240,10.0,-999.0,-999,-99.99,,,-99.99,,2013-05-22 00:32:00,
2013-05-21 17:42:00,-999.0,-99.9,-100.00,WSW,240,8.0,-999.0,-999,-99.99,,,-99.99,,2013-05-22 00:42:00,
2013-05-21 17:52:00,-999.0,-99.9,-100.00,SSW,210,8.0,-999.0,-999,-99.99,,,-99.99,,2013-05-22 00:52:00,
2013-05-21 18:01:00,58.0,39.0,-100.00,SW,220,8.0,-999.0,50,-99.99,,,-99.99,,2013-05-22 01:01:00,
2013-05-21 18:11:00,-999.0,-99.9,-100.00,SW,230,9.0,-999.0,-999,-99.99,,,-99.99,,2013-05-22 01:11:00,
2013-05-21 18:22:00,-999.0,-99.9,-100.00,SSW,200,9.0,-999.0,-999,-99.99,,,-99.99,,2013-05-22 01:22:00,
2013-05-21 18:32:00,-999.0,-99.9,-100.00,SW,230,8.0,-999.0,-999,-99.99,,,-99.99,,2013-05-22 01:32:00,
2013-05-21 18:41:00,56.0,34.0,-100.00,North,-999,-999.0,-999.0,44,-99.99,,,-99.99,,2013-05-22 01:41:00,
2013-05-21 18:52:00,55.0,32.0,-100.00,WSW,240,7.0,-999.0,42,-99.99,,,-99.99,,2013-05-22 01:52:00,
2013-05-21 19:02:00,-999.0,-99.9,-100.00,SW,230,8.0,-999.0,-999,-99.99,,,-99.99,,2013-05-22 02:02:00,
2013-05-21 19:11:00,54.0,35.0,-100.00,WSW,250,8.0,-999.0,48,-99.99,,,-99.99,,2013-05-22 02:11:00,
2013-05-21 19:22:00,-999.0,-99.9,-100.00,WSW,240,6.0,-999.0,-999,-99.99,,,-99.99,,2013-05-22 02:22:00,
2013-05-21 19:32:00,-999.0,-99.9,-100.00,SW,230,9.0,-999.0,-999,-99.99,,,-99.99,,2013-05-22 02:32:00,
2013-05-21 19:42:00,-999.0,-99.9,-100.00,SSW,210,7.0,-999.0,-999,-99.99,,,-99.99,,2013-05-22 02:42:00,
2013-05-21 19:52:00,-999.0,-99.9,-100.00,SW,220,9.0,-999.0,-999,-99.99,,,-99.99,,2013-05-22 02:52:00,
2013-05-21 20:02:00,-999.0,-99.9,-100.00,SW,220,6.0,-999.0,-999,-99.99,,,-99.99,,2013-05-22 03:02:00,
2013-05-21 20:11:00,51.0,31.0,-100.00,SSW,210,5.0,-999.0,46,-99.99,,,-99.99,,2013-05-22 03:11:00,
2013-05-21 20:21:00,51.0,31.0,-100.00,SSW,210,5.0,-999.0,46,-99.99,,,-99.99,,2013-05-22 03:21:00,
2013-05-21 20:53:00,-999.0,-99.9,-100.00,SSW,210,7.0,-999.0,-999,-99.99,,,-99.99,,2013-05-22 03:53:00,
2013-05-21 21:04:00,-999.0,-99.9,-100.00,SSE,150,243.0,-999.0,-999,-99.99,,,-99.99,,2013-05-22 04:04:00,
2013-05-21 21:12:00,49.0,31.0,-100.00,SSE,160,19.0,-999.0,49,-99.99,,,-99.99,,2013-05-22 04:12:00,
2013-05-21 21:23:00,-999.0,-99.9,-100.00,WSW,240,7.0,-999.0,-999,-99.99,,,-99.99,,2013-05-22 04:23:00,
2013-05-21 21:33:00,-999.0,-99.9,-100.00,SSW,210,6.0,-999.0,-999,-99.99,,,-99.99,,2013-05-22 04:33:00,
2013-05-21 21:42:00,49.0,29.0,-100.00,SW,230,6.0,-999.0,46,-99.99,,,-99.99,,2013-05-22 04:42:00,
2013-05-21 21:52:00,48.0,29.0,-100.00,North,-999,-999.0,-999.0,46,-99.99,,,-99.99,,2013-05-22 04:52:00,
2013-05-21 22:03:00,-999.0,-99.9,-100.00,SW,220,6.0,-999.0,-999,-99.99,,,-99.99,,2013-05-22 05:03:00,
2013-05-21 22:12:00,-999.0,-99.9,-100.00,SW,230,6.0,-999.0,-999,-99.99,,,-99.99,,2013-05-22 05:12:00,
2013-05-21 22:22:00,-999.0,-99.9,-100.00,SW,230,6.0,-999.0,-999,-99.99,,,-99.99,,2013-05-22 05:22:00,
2013-05-21 22:31:00,47.0,25.0,-100.00,North,-999,-999.0,-999.0,41,-99.99,,,-99.99,,2013-05-22 05:31:00,
2013-05-21 22:51:00,48.0,27.0,-100.00,WSW,250,7.0,-999.0,43,-99.99,,,-99.99,,2013-05-22 05:51:00,
2013-05-21 23:01:00,48.0,27.0,-100.00,WSW,250,7.0,-999.0,43,-99.99,,,-99.99,,2013-05-22 06:01:00,
2013-05-21 23:12:00,-999.0,-99.9,-100.00,SW,220,7.0,-999.0,-999,-99.99,,,-99.99,,2013-05-22 06:12:00,
2013-05-21 23:22:00,-999.0,-99.9,-100.00,WSW,240,6.0,-999.0,-999,-99.99,,,-99.99,,2013-05-22 06:22:00,
2013-05-21 23:32:00,-999.0,-99.9,-100.00,SSW,200,7.0,-999.0,-999,-99.99,,,-99.99,,2013-05-22 06:32:00,
2013-05-21 23:41:00,46.0,46.0,-100.00,SSW,200,6.0,-999.0,794,-99.99,,,-99.99,,2013-05-22 06:41:00,